sensor_id;sensor_type;location;lat;lon;timestamp;P1;durP1;ratioP1;P2;durP2;ratioP2
63818;SDS011;49970;54.976;73.248;2022-11-18T00:00:49;27.52;;;15.82;;
63818;SDS011;49970;54.976;73.248;2022-11-18T00:03:25;22.48;;;13.00;;
63818;SDS011;49970;54.976;73.248;2022-11-18T00:05:52;24.40;;;13.95;;
63818;SDS011;49970;54.976;73.248;2022-11-18T00:08:24;25.80;;;14.15;;
63818;SDS011;49970;54.976;73.248;2022-11-18T00:10:56;28.23;;;15.75;;
63818;SDS011;49970;54.976;73.248;2022-11-18T00:13:22;24.52;;;12.60;;
63818;SDS011;49970;54.976;73.248;2022-11-18T00:16:08;25.65;;;13.98;;
63818;SDS011;49970;54.976;73.248;2022-11-18T00:18:41;28.85;;;15.07;;
63818;SDS011;49970;54.976;73.248;2022-11-18T00:21:08;21.90;;;12.63;;
63818;SDS011;49970;54.976;73.248;2022-11-18T00:23:47;24.67;;;14.35;;
63818;SDS011;49970;54.976;73.248;2022-11-18T00:26:13;22.83;;;12.55;;
63818;SDS011;49970;54.976;73.248;2022-11-18T00:28:46;25.85;;;14.30;;
63818;SDS011;49970;54.976;73.248;2022-11-18T00:31:12;22.13;;;12.75;;
63818;SDS011;49970;54.976;73.248;2022-11-18T00:33:43;21.38;;;14.10;;
63818;SDS011;49970;54.976;73.248;2022-11-18T00:36:19;27.42;;;12.85;;
63818;SDS011;49970;54.976;73.248;2022-11-18T00:38:46;23.50;;;13.02;;
63818;SDS011;49970;54.976;73.248;2022-11-18T00:41:22;23.95;;;13.15;;
63818;SDS011;49970;54.976;73.248;2022-11-18T00:43:49;29.13;;;14.73;;
63818;SDS011;49970;54.976;73.248;2022-11-18T00:46:20;20.73;;;12.98;;
63818;SDS011;49970;54.976;73.248;2022-11-18T00:48:46;20.70;;;13.20;;
63818;SDS011;49970;54.976;73.248;2022-11-18T00:51:18;28.25;;;13.48;;
63818;SDS011;49970;54.976;73.248;2022-11-18T00:53:54;25.85;;;13.10;;
63818;SDS011;49970;54.976;73.248;2022-11-18T00:56:20;24.02;;;13.60;;
63818;SDS011;49970;54.976;73.248;2022-11-18T00:58:46;25.05;;;13.05;;
63818;SDS011;49970;54.976;73.248;2022-11-18T01:01:18;26.42;;;14.52;;
63818;SDS011;49970;54.976;73.248;2022-11-18T01:03:50;26.52;;;14.93;;
63818;SDS011;49970;54.976;73.248;2022-11-18T01:06:22;25.60;;;13.37;;
63818;SDS011;49970;54.976;73.248;2022-11-18T01:08:49;25.40;;;13.43;;
63818;SDS011;49970;54.976;73.248;2022-11-18T01:11:20;22.55;;;14.10;;
63818;SDS011;49970;54.976;73.248;2022-11-18T01:14:10;29.58;;;13.18;;
63818;SDS011;49970;54.976;73.248;2022-11-18T01:16:42;28.40;;;13.65;;
63818;SDS011;49970;54.976;73.248;2022-11-18T01:19:08;38.28;;;14.30;;
63818;SDS011;49970;54.976;73.248;2022-11-18T01:21:35;32.13;;;13.90;;
63818;SDS011;49970;54.976;73.248;2022-11-18T01:24:01;35.28;;;14.48;;
63818;SDS011;49970;54.976;73.248;2022-11-18T01:26:38;28.67;;;13.90;;
63818;SDS011;49970;54.976;73.248;2022-11-18T01:29:05;37.50;;;15.02;;
63818;SDS011;49970;54.976;73.248;2022-11-18T01:31:41;26.52;;;14.55;;
63818;SDS011;49970;54.976;73.248;2022-11-18T01:34:17;38.65;;;16.08;;
63818;SDS011;49970;54.976;73.248;2022-11-18T01:36:44;38.45;;;16.20;;
63818;SDS011;49970;54.976;73.248;2022-11-18T01:39:15;33.42;;;16.92;;
63818;SDS011;49970;54.976;73.248;2022-11-18T01:41:47;40.85;;;18.27;;
63818;SDS011;49970;54.976;73.248;2022-11-18T01:47:20;38.05;;;18.38;;
63818;SDS011;49970;54.976;73.248;2022-11-18T01:49:47;47.25;;;21.00;;
63818;SDS011;49970;54.976;73.248;2022-11-18T01:52:24;37.67;;;19.10;;
63818;SDS011;49970;54.976;73.248;2022-11-18T01:55:03;43.80;;;18.85;;
63818;SDS011;49970;54.976;73.248;2022-11-18T01:57:35;47.92;;;19.63;;
63818;SDS011;49970;54.976;73.248;2022-11-18T02:00:03;36.45;;;18.35;;
63818;SDS011;49970;54.976;73.248;2022-11-18T02:02:31;43.38;;;19.42;;
63818;SDS011;49970;54.976;73.248;2022-11-18T02:05:10;44.63;;;20.20;;
63818;SDS011;49970;54.976;73.248;2022-11-18T02:07:39;44.65;;;18.23;;
63818;SDS011;49970;54.976;73.248;2022-11-18T02:10:19;54.67;;;19.63;;
63818;SDS011;49970;54.976;73.248;2022-11-18T02:12:48;36.38;;;18.23;;
63818;SDS011;49970;54.976;73.248;2022-11-18T02:15:15;45.95;;;19.75;;
63818;SDS011;49970;54.976;73.248;2022-11-18T02:18:03;43.03;;;19.73;;
63818;SDS011;49970;54.976;73.248;2022-11-18T02:20:41;61.10;;;21.65;;
63818;SDS011;49970;54.976;73.248;2022-11-18T02:31:06;65.28;;;27.60;;
63818;SDS011;49970;54.976;73.248;2022-11-18T02:36:19;64.50;;;26.45;;
63818;SDS011;49970;54.976;73.248;2022-11-18T02:38:58;82.30;;;31.25;;
63818;SDS011;49970;54.976;73.248;2022-11-18T02:41:43;76.97;;;28.45;;
63818;SDS011;49970;54.976;73.248;2022-11-18T02:44:23;58.38;;;25.65;;
63818;SDS011;49970;54.976;73.248;2022-11-18T02:46:53;56.58;;;24.42;;
63818;SDS011;49970;54.976;73.248;2022-11-18T02:49:37;57.67;;;23.42;;
63818;SDS011;49970;54.976;73.248;2022-11-18T02:52:08;60.25;;;22.70;;
63818;SDS011;49970;54.976;73.248;2022-11-18T02:54:43;54.85;;;24.23;;
63818;SDS011;49970;54.976;73.248;2022-11-18T02:57:12;69.35;;;26.13;;
63818;SDS011;49970;54.976;73.248;2022-11-18T02:59:40;62.33;;;24.95;;
63818;SDS011;49970;54.976;73.248;2022-11-18T03:02:07;54.85;;;25.92;;
63818;SDS011;49970;54.976;73.248;2022-11-18T03:04:45;67.03;;;29.92;;
63818;SDS011;49970;54.976;73.248;2022-11-18T03:07:19;67.70;;;31.73;;
63818;SDS011;49970;54.976;73.248;2022-11-18T03:09:51;77.63;;;32.97;;
63818;SDS011;49970;54.976;73.248;2022-11-18T03:18:27;74.95;;;34.85;;
63818;SDS011;49970;54.976;73.248;2022-11-18T03:21:12;97.03;;;40.30;;
63818;SDS011;49970;54.976;73.248;2022-11-18T03:23:54;103.35;;;40.67;;
63818;SDS011;49970;54.976;73.248;2022-11-18T03:26:33;99.25;;;40.33;;
63818;SDS011;49970;54.976;73.248;2022-11-18T03:29:06;101.68;;;42.60;;
63818;SDS011;49970;54.976;73.248;2022-11-18T03:31:43;91.80;;;42.33;;
63818;SDS011;49970;54.976;73.248;2022-11-18T03:37:17;115.97;;;42.35;;
63818;SDS011;49970;54.976;73.248;2022-11-18T03:39:51;106.70;;;45.83;;
63818;SDS011;49970;54.976;73.248;2022-11-18T03:44:55;107.10;;;44.67;;
63818;SDS011;49970;54.976;73.248;2022-11-18T03:47:27;101.50;;;43.20;;
63818;SDS011;49970;54.976;73.248;2022-11-18T03:52:37;141.50;;;56.00;;
63818;SDS011;49970;54.976;73.248;2022-11-18T03:55:08;124.38;;;53.35;;
63818;SDS011;49970;54.976;73.248;2022-11-18T03:57:47;120.45;;;53.58;;
63818;SDS011;49970;54.976;73.248;2022-11-18T04:00:37;117.88;;;50.38;;
63818;SDS011;49970;54.976;73.248;2022-11-18T04:03:07;121.18;;;47.05;;
63818;SDS011;49970;54.976;73.248;2022-11-18T04:05:36;108.65;;;42.53;;
63818;SDS011;49970;54.976;73.248;2022-11-18T04:08:13;103.18;;;43.88;;
63818;SDS011;49970;54.976;73.248;2022-11-18T04:10:50;103.90;;;42.92;;
63818;SDS011;49970;54.976;73.248;2022-11-18T04:13:23;94.10;;;41.25;;
63818;SDS011;49970;54.976;73.248;2022-11-18T04:15:53;100.65;;;42.08;;
63818;SDS011;49970;54.976;73.248;2022-11-18T04:18:20;113.53;;;42.35;;
63818;SDS011;49970;54.976;73.248;2022-11-18T04:20:51;111.90;;;42.55;;
63818;SDS011;49970;54.976;73.248;2022-11-18T04:23:20;115.72;;;44.08;;
63818;SDS011;49970;54.976;73.248;2022-11-18T04:25:46;110.88;;;44.63;;
63818;SDS011;49970;54.976;73.248;2022-11-18T04:28:12;121.82;;;43.95;;
63818;SDS011;49970;54.976;73.248;2022-11-18T04:30:39;117.65;;;46.42;;
63818;SDS011;49970;54.976;73.248;2022-11-18T04:33:10;106.90;;;40.47;;
63818;SDS011;49970;54.976;73.248;2022-11-18T04:35:36;126.60;;;45.70;;
63818;SDS011;49970;54.976;73.248;2022-11-18T04:38:02;129.23;;;45.60;;
63818;SDS011;49970;54.976;73.248;2022-11-18T04:40:39;120.50;;;44.90;;
63818;SDS011;49970;54.976;73.248;2022-11-18T04:43:05;112.53;;;44.20;;
63818;SDS011;49970;54.976;73.248;2022-11-18T04:45:31;128.43;;;47.72;;
63818;SDS011;49970;54.976;73.248;2022-11-18T04:48:01;119.32;;;45.00;;
63818;SDS011;49970;54.976;73.248;2022-11-18T04:50:27;118.47;;;45.05;;
63818;SDS011;49970;54.976;73.248;2022-11-18T04:52:54;112.10;;;46.10;;
63818;SDS011;49970;54.976;73.248;2022-11-18T04:55:20;121.22;;;43.65;;
63818;SDS011;49970;54.976;73.248;2022-11-18T04:57:46;124.88;;;44.45;;
63818;SDS011;49970;54.976;73.248;2022-11-18T05:00:22;103.78;;;41.45;;
63818;SDS011;49970;54.976;73.248;2022-11-18T05:02:48;112.00;;;38.60;;
63818;SDS011;49970;54.976;73.248;2022-11-18T05:05:15;101.40;;;40.30;;
63818;SDS011;49970;54.976;73.248;2022-11-18T05:07:41;92.65;;;37.92;;
63818;SDS011;49970;54.976;73.248;2022-11-18T05:10:07;90.15;;;35.38;;
63818;SDS011;49970;54.976;73.248;2022-11-18T05:12:34;83.32;;;35.65;;
63818;SDS011;49970;54.976;73.248;2022-11-18T05:15:17;87.10;;;33.88;;
63818;SDS011;49970;54.976;73.248;2022-11-18T05:17:45;84.18;;;35.10;;
63818;SDS011;49970;54.976;73.248;2022-11-18T05:20:12;99.03;;;34.40;;
63818;SDS011;49970;54.976;73.248;2022-11-18T05:22:39;84.57;;;33.03;;
63818;SDS011;49970;54.976;73.248;2022-11-18T05:25:05;88.65;;;31.83;;
63818;SDS011;49970;54.976;73.248;2022-11-18T05:27:32;70.88;;;28.65;;
63818;SDS011;49970;54.976;73.248;2022-11-18T05:29:58;76.10;;;33.33;;
63818;SDS011;49970;54.976;73.248;2022-11-18T05:32:30;70.25;;;29.65;;
63818;SDS011;49970;54.976;73.248;2022-11-18T05:34:57;79.05;;;31.30;;
63818;SDS011;49970;54.976;73.248;2022-11-18T05:37:23;73.43;;;31.50;;
63818;SDS011;49970;54.976;73.248;2022-11-18T05:39:49;84.60;;;31.63;;
63818;SDS011;49970;54.976;73.248;2022-11-18T05:42:15;79.68;;;33.60;;
63818;SDS011;49970;54.976;73.248;2022-11-18T05:45:00;89.88;;;35.30;;
63818;SDS011;49970;54.976;73.248;2022-11-18T05:47:27;76.82;;;32.05;;
63818;SDS011;49970;54.976;73.248;2022-11-18T05:50:14;67.35;;;28.17;;
63818;SDS011;49970;54.976;73.248;2022-11-18T05:52:40;70.93;;;31.65;;
63818;SDS011;49970;54.976;73.248;2022-11-18T05:55:07;68.03;;;29.25;;
63818;SDS011;49970;54.976;73.248;2022-11-18T05:57:37;48.78;;;24.23;;
63818;SDS011;49970;54.976;73.248;2022-11-18T06:00:03;42.38;;;24.42;;
63818;SDS011;49970;54.976;73.248;2022-11-18T06:02:38;47.72;;;21.30;;
63818;SDS011;49970;54.976;73.248;2022-11-18T06:05:07;42.38;;;23.13;;
63818;SDS011;49970;54.976;73.248;2022-11-18T06:07:36;50.97;;;23.33;;
63818;SDS011;49970;54.976;73.248;2022-11-18T06:10:06;47.13;;;18.70;;
63818;SDS011;49970;54.976;73.248;2022-11-18T06:12:36;39.65;;;18.60;;
63818;SDS011;49970;54.976;73.248;2022-11-18T06:15:10;36.33;;;16.83;;
63818;SDS011;49970;54.976;73.248;2022-11-18T06:17:45;38.60;;;19.02;;
63818;SDS011;49970;54.976;73.248;2022-11-18T06:20:18;39.50;;;19.25;;
63818;SDS011;49970;54.976;73.248;2022-11-18T06:22:47;34.95;;;18.35;;
63818;SDS011;49970;54.976;73.248;2022-11-18T06:25:18;35.63;;;17.85;;
63818;SDS011;49970;54.976;73.248;2022-11-18T06:27:44;33.80;;;17.20;;
63818;SDS011;49970;54.976;73.248;2022-11-18T06:30:12;37.58;;;17.95;;
63818;SDS011;49970;54.976;73.248;2022-11-18T06:32:39;33.60;;;17.67;;
63818;SDS011;49970;54.976;73.248;2022-11-18T06:35:05;36.60;;;17.67;;
63818;SDS011;49970;54.976;73.248;2022-11-18T06:37:32;34.25;;;18.33;;
63818;SDS011;49970;54.976;73.248;2022-11-18T06:39:58;27.45;;;15.20;;
63818;SDS011;49970;54.976;73.248;2022-11-18T06:42:27;29.75;;;17.50;;
63818;SDS011;49970;54.976;73.248;2022-11-18T06:45:17;33.58;;;14.32;;
63818;SDS011;49970;54.976;73.248;2022-11-18T06:47:44;29.58;;;16.10;;
63818;SDS011;49970;54.976;73.248;2022-11-18T06:50:10;31.92;;;16.25;;
63818;SDS011;49970;54.976;73.248;2022-11-18T06:52:36;27.00;;;15.30;;
63818;SDS011;49970;54.976;73.248;2022-11-18T06:55:03;25.85;;;16.25;;
63818;SDS011;49970;54.976;73.248;2022-11-18T06:57:31;25.52;;;16.80;;
63818;SDS011;49970;54.976;73.248;2022-11-18T06:59:58;29.67;;;16.77;;
63818;SDS011;49970;54.976;73.248;2022-11-18T07:02:24;38.08;;;16.67;;
63818;SDS011;49970;54.976;73.248;2022-11-18T07:04:50;27.73;;;17.27;;
63818;SDS011;49970;54.976;73.248;2022-11-18T07:07:16;24.58;;;16.00;;
63818;SDS011;49970;54.976;73.248;2022-11-18T07:09:42;29.05;;;15.05;;
63818;SDS011;49970;54.976;73.248;2022-11-18T07:12:19;33.33;;;16.55;;
63818;SDS011;49970;54.976;73.248;2022-11-18T07:14:45;32.05;;;16.13;;
63818;SDS011;49970;54.976;73.248;2022-11-18T07:17:21;28.02;;;14.30;;
63818;SDS011;49970;54.976;73.248;2022-11-18T07:19:52;21.20;;;12.82;;
63818;SDS011;49970;54.976;73.248;2022-11-18T07:22:19;30.05;;;14.82;;
63818;SDS011;49970;54.976;73.248;2022-11-18T07:24:45;19.27;;;12.05;;
63818;SDS011;49970;54.976;73.248;2022-11-18T07:27:11;19.70;;;12.70;;
63818;SDS011;49970;54.976;73.248;2022-11-18T07:29:37;20.63;;;12.00;;
63818;SDS011;49970;54.976;73.248;2022-11-18T07:32:04;24.13;;;14.40;;
63818;SDS011;49970;54.976;73.248;2022-11-18T07:34:41;18.60;;;11.85;;
63818;SDS011;49970;54.976;73.248;2022-11-18T07:37:07;14.57;;;10.45;;
63818;SDS011;49970;54.976;73.248;2022-11-18T07:39:34;26.55;;;12.68;;
63818;SDS011;49970;54.976;73.248;2022-11-18T07:42:00;14.13;;;9.63;;
63818;SDS011;49970;54.976;73.248;2022-11-18T07:44:26;12.95;;;9.60;;
63818;SDS011;49970;54.976;73.248;2022-11-18T07:46:52;14.80;;;10.40;;
63818;SDS011;49970;54.976;73.248;2022-11-18T07:49:19;17.33;;;10.98;;
63818;SDS011;49970;54.976;73.248;2022-11-18T07:51:50;22.02;;;11.18;;
63818;SDS011;49970;54.976;73.248;2022-11-18T07:54:17;14.75;;;10.95;;
63818;SDS011;49970;54.976;73.248;2022-11-18T07:56:43;14.18;;;9.85;;
63818;SDS011;49970;54.976;73.248;2022-11-18T07:59:19;13.15;;;9.30;;
63818;SDS011;49970;54.976;73.248;2022-11-18T08:01:45;13.82;;;10.60;;
63818;SDS011;49970;54.976;73.248;2022-11-18T08:04:11;13.73;;;10.27;;
63818;SDS011;49970;54.976;73.248;2022-11-18T08:06:40;17.23;;;10.65;;
63818;SDS011;49970;54.976;73.248;2022-11-18T08:09:11;21.10;;;9.50;;
63818;SDS011;49970;54.976;73.248;2022-11-18T08:11:38;14.25;;;10.43;;
63818;SDS011;49970;54.976;73.248;2022-11-18T08:14:05;14.95;;;9.82;;
63818;SDS011;49970;54.976;73.248;2022-11-18T08:16:31;18.73;;;10.38;;
63818;SDS011;49970;54.976;73.248;2022-11-18T08:19:03;21.65;;;10.88;;
63818;SDS011;49970;54.976;73.248;2022-11-18T08:21:29;18.58;;;11.48;;
63818;SDS011;49970;54.976;73.248;2022-11-18T08:23:56;15.20;;;10.02;;
63818;SDS011;49970;54.976;73.248;2022-11-18T08:26:23;17.20;;;11.95;;
63818;SDS011;49970;54.976;73.248;2022-11-18T08:28:51;15.82;;;11.02;;
63818;SDS011;49970;54.976;73.248;2022-11-18T08:31:19;16.90;;;11.27;;
63818;SDS011;49970;54.976;73.248;2022-11-18T08:33:53;13.93;;;10.15;;
63818;SDS011;49970;54.976;73.248;2022-11-18T08:36:27;23.50;;;11.93;;
63818;SDS011;49970;54.976;73.248;2022-11-18T08:38:55;18.58;;;11.23;;
63818;SDS011;49970;54.976;73.248;2022-11-18T08:41:36;15.90;;;11.00;;
63818;SDS011;49970;54.976;73.248;2022-11-18T08:44:05;15.25;;;11.00;;
63818;SDS011;49970;54.976;73.248;2022-11-18T08:46:32;13.50;;;10.05;;
63818;SDS011;49970;54.976;73.248;2022-11-18T08:48:58;14.98;;;11.57;;
63818;SDS011;49970;54.976;73.248;2022-11-18T08:51:25;16.75;;;10.00;;
63818;SDS011;49970;54.976;73.248;2022-11-18T08:54:01;15.77;;;11.57;;
63818;SDS011;49970;54.976;73.248;2022-11-18T08:56:28;16.73;;;11.45;;
63818;SDS011;49970;54.976;73.248;2022-11-18T08:58:59;23.23;;;12.98;;
63818;SDS011;49970;54.976;73.248;2022-11-18T09:01:36;28.98;;;14.98;;
63818;SDS011;49970;54.976;73.248;2022-11-18T09:04:03;24.27;;;12.52;;
63818;SDS011;49970;54.976;73.248;2022-11-18T09:06:29;20.02;;;12.35;;
63818;SDS011;49970;54.976;73.248;2022-11-18T09:09:06;22.42;;;11.43;;
63818;SDS011;49970;54.976;73.248;2022-11-18T09:11:33;18.13;;;10.73;;
63818;SDS011;49970;54.976;73.248;2022-11-18T09:14:00;21.27;;;12.50;;
63818;SDS011;49970;54.976;73.248;2022-11-18T09:16:27;16.17;;;10.63;;
63818;SDS011;49970;54.976;73.248;2022-11-18T09:18:56;15.70;;;9.77;;
63818;SDS011;49970;54.976;73.248;2022-11-18T09:21:23;10.80;;;9.00;;
63818;SDS011;49970;54.976;73.248;2022-11-18T09:23:50;11.43;;;9.13;;
63818;SDS011;49970;54.976;73.248;2022-11-18T09:26:17;17.05;;;11.95;;
63818;SDS011;49970;54.976;73.248;2022-11-18T09:28:49;19.77;;;9.18;;
63818;SDS011;49970;54.976;73.248;2022-11-18T09:31:23;17.60;;;10.07;;
63818;SDS011;49970;54.976;73.248;2022-11-18T09:33:49;21.38;;;10.98;;
63818;SDS011;49970;54.976;73.248;2022-11-18T09:36:23;12.10;;;9.35;;
63818;SDS011;49970;54.976;73.248;2022-11-18T09:38:50;13.77;;;9.45;;
63818;SDS011;49970;54.976;73.248;2022-11-18T09:54:36;17.30;;;9.70;;
63818;SDS011;49970;54.976;73.248;2022-11-18T09:57:15;11.98;;;9.57;;
63818;SDS011;49970;54.976;73.248;2022-11-18T09:59:45;14.68;;;9.27;;
63818;SDS011;49970;54.976;73.248;2022-11-18T10:05:16;25.45;;;13.02;;
63818;SDS011;49970;54.976;73.248;2022-11-18T10:10:51;45.03;;;18.27;;
63818;SDS011;49970;54.976;73.248;2022-11-18T10:13:33;49.47;;;18.13;;
63818;SDS011;49970;54.976;73.248;2022-11-18T10:18:57;60.53;;;25.60;;
63818;SDS011;49970;54.976;73.248;2022-11-18T10:24:24;26.60;;;13.98;;
63818;SDS011;49970;54.976;73.248;2022-11-18T10:26:54;16.45;;;10.45;;
63818;SDS011;49970;54.976;73.248;2022-11-18T10:29:22;29.38;;;12.30;;
63818;SDS011;49970;54.976;73.248;2022-11-18T10:31:53;20.27;;;10.57;;
63818;SDS011;49970;54.976;73.248;2022-11-18T10:34:24;19.35;;;9.63;;
63818;SDS011;49970;54.976;73.248;2022-11-18T10:36:58;18.67;;;10.52;;
63818;SDS011;49970;54.976;73.248;2022-11-18T10:39:31;13.80;;;8.95;;
63818;SDS011;49970;54.976;73.248;2022-11-18T10:42:01;17.13;;;11.18;;
63818;SDS011;49970;54.976;73.248;2022-11-18T10:44:36;36.67;;;21.90;;
63818;SDS011;49970;54.976;73.248;2022-11-18T10:49:59;28.20;;;12.95;;
63818;SDS011;49970;54.976;73.248;2022-11-18T10:52:28;22.77;;;12.18;;
63818;SDS011;49970;54.976;73.248;2022-11-18T10:55:06;19.90;;;12.65;;
63818;SDS011;49970;54.976;73.248;2022-11-18T10:57:44;25.85;;;13.88;;
63818;SDS011;49970;54.976;73.248;2022-11-18T11:03:26;21.48;;;12.80;;
63818;SDS011;49970;54.976;73.248;2022-11-18T11:06:27;27.52;;;13.27;;
63818;SDS011;49970;54.976;73.248;2022-11-18T11:08:57;19.70;;;12.35;;
63818;SDS011;49970;54.976;73.248;2022-11-18T11:11:39;23.27;;;12.63;;
63818;SDS011;49970;54.976;73.248;2022-11-18T11:14:13;23.83;;;13.95;;
63818;SDS011;49970;54.976;73.248;2022-11-18T11:16:49;18.75;;;11.43;;
63818;SDS011;49970;54.976;73.248;2022-11-18T11:19:40;25.30;;;10.23;;
63818;SDS011;49970;54.976;73.248;2022-11-18T11:22:11;18.73;;;10.52;;
63818;SDS011;49970;54.976;73.248;2022-11-18T11:24:43;16.58;;;10.93;;
63818;SDS011;49970;54.976;73.248;2022-11-18T11:30:06;22.33;;;12.48;;
63818;SDS011;49970;54.976;73.248;2022-11-18T11:32:51;24.90;;;14.35;;
63818;SDS011;49970;54.976;73.248;2022-11-18T11:35:46;13.10;;;9.07;;
63818;SDS011;49970;54.976;73.248;2022-11-18T11:41:36;11.75;;;9.63;;
63818;SDS011;49970;54.976;73.248;2022-11-18T11:50:27;15.98;;;10.63;;
63818;SDS011;49970;54.976;73.248;2022-11-18T12:07:05;41.58;;;18.67;;
63818;SDS011;49970;54.976;73.248;2022-11-18T12:09:44;51.17;;;24.08;;
63818;SDS011;49970;54.976;73.248;2022-11-18T12:12:27;54.78;;;24.40;;
63818;SDS011;49970;54.976;73.248;2022-11-18T12:15:15;45.33;;;23.60;;
63818;SDS011;49970;54.976;73.248;2022-11-18T12:24:24;51.05;;;22.25;;
63818;SDS011;49970;54.976;73.248;2022-11-18T12:26:56;62.95;;;25.48;;
63818;SDS011;49970;54.976;73.248;2022-11-18T12:29:25;101.28;;;36.60;;
63818;SDS011;49970;54.976;73.248;2022-11-18T12:31:57;69.20;;;34.75;;
63818;SDS011;49970;54.976;73.248;2022-11-18T12:34:27;76.00;;;37.38;;
63818;SDS011;49970;54.976;73.248;2022-11-18T12:36:58;72.63;;;33.15;;
63818;SDS011;49970;54.976;73.248;2022-11-18T12:42:34;76.30;;;30.02;;
63818;SDS011;49970;54.976;73.248;2022-11-18T12:50:59;68.85;;;32.30;;
63818;SDS011;49970;54.976;73.248;2022-11-18T12:53:38;93.25;;;40.17;;
63818;SDS011;49970;54.976;73.248;2022-11-18T13:01:20;70.10;;;29.17;;
63818;SDS011;49970;54.976;73.248;2022-11-18T13:04:16;80.65;;;33.17;;
63818;SDS011;49970;54.976;73.248;2022-11-18T13:06:47;116.53;;;50.97;;
63818;SDS011;49970;54.976;73.248;2022-11-18T13:09:16;115.05;;;46.50;;
63818;SDS011;49970;54.976;73.248;2022-11-18T13:11:48;130.90;;;41.97;;
63818;SDS011;49970;54.976;73.248;2022-11-18T13:17:50;81.97;;;32.55;;
63818;SDS011;49970;54.976;73.248;2022-11-18T13:20:33;81.13;;;30.70;;
63818;SDS011;49970;54.976;73.248;2022-11-18T13:23:02;89.25;;;30.33;;
63818;SDS011;49970;54.976;73.248;2022-11-18T13:25:48;76.85;;;28.42;;
63818;SDS011;49970;54.976;73.248;2022-11-18T13:31:02;63.70;;;26.55;;
63818;SDS011;49970;54.976;73.248;2022-11-18T13:33:40;54.03;;;27.58;;
63818;SDS011;49970;54.976;73.248;2022-11-18T13:36:20;69.28;;;30.58;;
63818;SDS011;49970;54.976;73.248;2022-11-18T13:38:54;75.47;;;28.83;;
63818;SDS011;49970;54.976;73.248;2022-11-18T13:41:26;94.03;;;35.10;;
63818;SDS011;49970;54.976;73.248;2022-11-18T13:46:51;112.75;;;42.40;;
63818;SDS011;49970;54.976;73.248;2022-11-18T13:49:42;131.82;;;43.35;;
63818;SDS011;49970;54.976;73.248;2022-11-18T13:52:26;101.38;;;37.92;;
63818;SDS011;49970;54.976;73.248;2022-11-18T13:54:58;59.30;;;27.08;;
63818;SDS011;49970;54.976;73.248;2022-11-18T13:57:27;49.47;;;24.55;;
63818;SDS011;49970;54.976;73.248;2022-11-18T13:59:54;43.28;;;21.10;;
63818;SDS011;49970;54.976;73.248;2022-11-18T14:02:40;44.40;;;21.15;;
63818;SDS011;49970;54.976;73.248;2022-11-18T14:05:17;37.67;;;18.83;;
63818;SDS011;49970;54.976;73.248;2022-11-18T14:07:58;40.75;;;18.65;;
63818;SDS011;49970;54.976;73.248;2022-11-18T14:10:40;39.58;;;19.02;;
63818;SDS011;49970;54.976;73.248;2022-11-18T14:13:28;41.60;;;18.45;;
63818;SDS011;49970;54.976;73.248;2022-11-18T14:18:45;44.70;;;17.90;;
63818;SDS011;49970;54.976;73.248;2022-11-18T14:21:13;44.40;;;17.67;;
63818;SDS011;49970;54.976;73.248;2022-11-18T14:23:51;35.67;;;17.70;;
63818;SDS011;49970;54.976;73.248;2022-11-18T14:26:25;41.88;;;19.73;;
63818;SDS011;49970;54.976;73.248;2022-11-18T14:28:54;35.55;;;18.48;;
63818;SDS011;49970;54.976;73.248;2022-11-18T14:31:26;43.15;;;18.60;;
63818;SDS011;49970;54.976;73.248;2022-11-18T14:36:45;45.10;;;18.52;;
63818;SDS011;49970;54.976;73.248;2022-11-18T14:39:24;42.42;;;18.35;;
63818;SDS011;49970;54.976;73.248;2022-11-18T14:41:57;36.45;;;16.90;;
63818;SDS011;49970;54.976;73.248;2022-11-18T14:44:25;44.78;;;18.48;;
63818;SDS011;49970;54.976;73.248;2022-11-18T14:46:56;54.72;;;20.60;;
63818;SDS011;49970;54.976;73.248;2022-11-18T14:49:30;63.92;;;23.80;;
63818;SDS011;49970;54.976;73.248;2022-11-18T14:51:57;52.10;;;22.73;;
63818;SDS011;49970;54.976;73.248;2022-11-18T14:54:26;56.20;;;22.60;;
63818;SDS011;49970;54.976;73.248;2022-11-18T14:56:54;63.10;;;26.25;;
63818;SDS011;49970;54.976;73.248;2022-11-18T14:59:30;67.53;;;26.48;;
63818;SDS011;49970;54.976;73.248;2022-11-18T15:02:02;58.10;;;24.88;;
63818;SDS011;49970;54.976;73.248;2022-11-18T15:04:38;69.95;;;24.42;;
63818;SDS011;49970;54.976;73.248;2022-11-18T15:07:05;69.65;;;27.10;;
63818;SDS011;49970;54.976;73.248;2022-11-18T15:09:31;64.68;;;28.77;;
63818;SDS011;49970;54.976;73.248;2022-11-18T15:11:57;63.15;;;24.25;;
63818;SDS011;49970;54.976;73.248;2022-11-18T15:14:29;69.97;;;27.85;;
63818;SDS011;49970;54.976;73.248;2022-11-18T15:16:55;57.72;;;26.38;;
63818;SDS011;49970;54.976;73.248;2022-11-18T15:19:26;65.35;;;26.35;;
63818;SDS011;49970;54.976;73.248;2022-11-18T15:21:53;64.47;;;25.08;;
63818;SDS011;49970;54.976;73.248;2022-11-18T15:24:19;52.22;;;22.23;;
63818;SDS011;49970;54.976;73.248;2022-11-18T15:26:46;59.15;;;24.45;;
63818;SDS011;49970;54.976;73.248;2022-11-18T15:29:17;56.22;;;20.92;;
63818;SDS011;49970;54.976;73.248;2022-11-18T15:31:50;55.92;;;22.83;;
63818;SDS011;49970;54.976;73.248;2022-11-18T15:34:22;51.65;;;21.30;;
63818;SDS011;49970;54.976;73.248;2022-11-18T15:36:48;48.50;;;21.00;;
63818;SDS011;49970;54.976;73.248;2022-11-18T15:39:25;48.58;;;20.67;;
63818;SDS011;49970;54.976;73.248;2022-11-18T15:41:52;56.25;;;20.50;;
63818;SDS011;49970;54.976;73.248;2022-11-18T15:44:18;60.67;;;22.23;;
63818;SDS011;49970;54.976;73.248;2022-11-18T15:46:55;42.78;;;19.40;;
63818;SDS011;49970;54.976;73.248;2022-11-18T15:49:21;53.58;;;21.48;;
63818;SDS011;49970;54.976;73.248;2022-11-18T15:51:48;56.05;;;20.58;;
63818;SDS011;49970;54.976;73.248;2022-11-18T15:54:19;45.35;;;21.52;;
63818;SDS011;49970;54.976;73.248;2022-11-18T15:56:45;52.85;;;21.38;;
63818;SDS011;49970;54.976;73.248;2022-11-18T15:59:16;51.25;;;21.83;;
63818;SDS011;49970;54.976;73.248;2022-11-18T16:01:46;47.65;;;21.90;;
63818;SDS011;49970;54.976;73.248;2022-11-18T16:04:18;53.08;;;21.80;;
63818;SDS011;49970;54.976;73.248;2022-11-18T16:06:44;49.50;;;22.40;;
63818;SDS011;49970;54.976;73.248;2022-11-18T16:09:11;45.47;;;21.08;;
63818;SDS011;49970;54.976;73.248;2022-11-18T16:11:48;55.20;;;22.25;;
63818;SDS011;49970;54.976;73.248;2022-11-18T16:14:38;51.88;;;21.95;;
63818;SDS011;49970;54.976;73.248;2022-11-18T16:17:04;49.83;;;21.95;;
63818;SDS011;49970;54.976;73.248;2022-11-18T16:19:35;46.65;;;20.38;;
63818;SDS011;49970;54.976;73.248;2022-11-18T16:22:03;50.75;;;22.98;;
63818;SDS011;49970;54.976;73.248;2022-11-18T16:24:29;51.00;;;20.05;;
63818;SDS011;49970;54.976;73.248;2022-11-18T16:27:01;45.90;;;21.20;;
63818;SDS011;49970;54.976;73.248;2022-11-18T16:29:27;54.42;;;22.52;;
63818;SDS011;49970;54.976;73.248;2022-11-18T16:32:11;56.17;;;22.40;;
63818;SDS011;49970;54.976;73.248;2022-11-18T16:34:38;54.50;;;22.08;;